sensor_id;sensor_type;location;lat;lon;timestamp;P1;durP1;ratioP1;P2;durP2;ratioP2
15340;SDS011;7770;52.158;5.372;2023-07-20T00:02:15;8.73;;;7.93;;
15340;SDS011;7770;52.158;5.372;2023-07-20T00:05:01;7.27;;;6.63;;
15340;SDS011;7770;52.158;5.372;2023-07-20T00:07:47;6.17;;;5.67;;
15340;SDS011;7770;52.158;5.372;2023-07-20T00:10:37;5.37;;;4.97;;
15340;SDS011;7770;52.158;5.372;2023-07-20T00:13:23;4.90;;;4.50;;
15340;SDS011;7770;52.158;5.372;2023-07-20T00:16:09;5.60;;;5.10;;
15340;SDS011;7770;52.158;5.372;2023-07-20T00:18:55;5.30;;;4.90;;
15340;SDS011;7770;52.158;5.372;2023-07-20T00:21:41;5.07;;;4.67;;
15340;SDS011;7770;52.158;5.372;2023-07-20T00:24:28;5.80;;;5.30;;
15340;SDS011;7770;52.158;5.372;2023-07-20T00:27:14;5.80;;;5.30;;
15340;SDS011;7770;52.158;5.372;2023-07-20T00:29:59;6.33;;;5.83;;
15340;SDS011;7770;52.158;5.372;2023-07-20T00:32:46;6.07;;;5.57;;
15340;SDS011;7770;52.158;5.372;2023-07-20T00:35:32;6.20;;;5.60;;
15340;SDS011;7770;52.158;5.372;2023-07-20T00:38:18;6.03;;;5.53;;
15340;SDS011;7770;52.158;5.372;2023-07-20T00:41:04;6.70;;;6.20;;
15340;SDS011;7770;52.158;5.372;2023-07-20T00:43:50;5.93;;;5.43;;
15340;SDS011;7770;52.158;5.372;2023-07-20T00:46:36;6.50;;;5.90;;
15340;SDS011;7770;52.158;5.372;2023-07-20T00:49:22;6.03;;;5.53;;
15340;SDS011;7770;52.158;5.372;2023-07-20T00:52:10;6.20;;;5.70;;
15340;SDS011;7770;52.158;5.372;2023-07-20T00:54:59;6.60;;;6.00;;
15340;SDS011;7770;52.158;5.372;2023-07-20T00:57:46;5.77;;;5.27;;
15340;SDS011;7770;52.158;5.372;2023-07-20T01:00:32;6.10;;;5.60;;
15340;SDS011;7770;52.158;5.372;2023-07-20T01:03:18;6.63;;;5.80;;
15340;SDS011;7770;52.158;5.372;2023-07-20T01:06:10;6.20;;;5.67;;
15340;SDS011;7770;52.158;5.372;2023-07-20T01:09:21;6.10;;;5.60;;
15340;SDS011;7770;52.158;5.372;2023-07-20T01:12:25;6.30;;;5.80;;
15340;SDS011;7770;52.158;5.372;2023-07-20T01:15:18;6.67;;;5.80;;
15340;SDS011;7770;52.158;5.372;2023-07-20T01:18:04;5.60;;;5.20;;
15340;SDS011;7770;52.158;5.372;2023-07-20T01:20:50;5.30;;;4.90;;
15340;SDS011;7770;52.158;5.372;2023-07-20T01:33:40;6.20;;;5.70;;
15340;SDS011;7770;52.158;5.372;2023-07-20T01:36:29;6.33;;;5.83;;
15340;SDS011;7770;52.158;5.372;2023-07-20T01:39:19;7.30;;;6.33;;
15340;SDS011;7770;52.158;5.372;2023-07-20T01:42:07;6.77;;;6.27;;
15340;SDS011;7770;52.158;5.372;2023-07-20T01:44:53;7.03;;;6.47;;
15340;SDS011;7770;52.158;5.372;2023-07-20T01:47:39;7.40;;;6.73;;
15340;SDS011;7770;52.158;5.372;2023-07-20T01:50:25;7.93;;;7.27;;
15340;SDS011;7770;52.158;5.372;2023-07-20T01:53:11;8.20;;;7.50;;
15340;SDS011;7770;52.158;5.372;2023-07-20T01:55:57;8.43;;;7.63;;
15340;SDS011;7770;52.158;5.372;2023-07-20T01:58:43;8.23;;;7.53;;
15340;SDS011;7770;52.158;5.372;2023-07-20T02:01:29;7.77;;;7.17;;
15340;SDS011;7770;52.158;5.372;2023-07-20T02:04:15;7.97;;;7.37;;
15340;SDS011;7770;52.158;5.372;2023-07-20T02:07:01;7.50;;;6.90;;
15340;SDS011;7770;52.158;5.372;2023-07-20T02:09:47;7.43;;;6.73;;
15340;SDS011;7770;52.158;5.372;2023-07-20T02:12:33;6.63;;;6.03;;
15340;SDS011;7770;52.158;5.372;2023-07-20T02:15:19;6.73;;;6.23;;
15340;SDS011;7770;52.158;5.372;2023-07-20T02:18:06;6.27;;;5.77;;
15340;SDS011;7770;52.158;5.372;2023-07-20T02:20:53;6.77;;;6.17;;
15340;SDS011;7770;52.158;5.372;2023-07-20T02:23:39;5.97;;;5.47;;
15340;SDS011;7770;52.158;5.372;2023-07-20T02:26:25;6.53;;;5.93;;
15340;SDS011;7770;52.158;5.372;2023-07-20T02:29:11;6.70;;;6.10;;
15340;SDS011;7770;52.158;5.372;2023-07-20T02:31:57;6.50;;;5.90;;
15340;SDS011;7770;52.158;5.372;2023-07-20T02:34:43;6.63;;;6.03;;
15340;SDS011;7770;52.158;5.372;2023-07-20T02:37:29;6.27;;;5.77;;
15340;SDS011;7770;52.158;5.372;2023-07-20T02:40:16;6.27;;;5.70;;
15340;SDS011;7770;52.158;5.372;2023-07-20T02:43:02;6.10;;;5.60;;
15340;SDS011;7770;52.158;5.372;2023-07-20T02:45:48;7.43;;;6.40;;
15340;SDS011;7770;52.158;5.372;2023-07-20T02:48:36;6.23;;;5.73;;
15340;SDS011;7770;52.158;5.372;2023-07-20T02:51:22;6.60;;;6.10;;
15340;SDS011;7770;52.158;5.372;2023-07-20T02:54:08;6.73;;;6.20;;
15340;SDS011;7770;52.158;5.372;2023-07-20T02:56:53;7.10;;;6.60;;
15340;SDS011;7770;52.158;5.372;2023-07-20T02:59:40;7.27;;;6.67;;
15340;SDS011;7770;52.158;5.372;2023-07-20T03:02:26;7.30;;;6.70;;
15340;SDS011;7770;52.158;5.372;2023-07-20T03:05:14;6.60;;;6.00;;
15340;SDS011;7770;52.158;5.372;2023-07-20T03:08:02;6.70;;;6.10;;
15340;SDS011;7770;52.158;5.372;2023-07-20T03:10:48;6.93;;;6.40;;
15340;SDS011;7770;52.158;5.372;2023-07-20T03:13:34;7.00;;;6.47;;
15340;SDS011;7770;52.158;5.372;2023-07-20T03:16:20;7.13;;;6.43;;
15340;SDS011;7770;52.158;5.372;2023-07-20T03:19:08;7.43;;;6.73;;
15340;SDS011;7770;52.158;5.372;2023-07-20T03:21:55;7.50;;;6.90;;
15340;SDS011;7770;52.158;5.372;2023-07-20T03:24:41;7.77;;;7.03;;
15340;SDS011;7770;52.158;5.372;2023-07-20T03:27:27;7.97;;;7.20;;
15340;SDS011;7770;52.158;5.372;2023-07-20T03:30:14;8.37;;;6.93;;
15340;SDS011;7770;52.158;5.372;2023-07-20T03:33:00;7.90;;;7.20;;
15340;SDS011;7770;52.158;5.372;2023-07-20T03:35:46;7.57;;;6.90;;
15340;SDS011;7770;52.158;5.372;2023-07-20T03:38:32;7.60;;;6.90;;
15340;SDS011;7770;52.158;5.372;2023-07-20T03:41:18;10.50;;;7.40;;
15340;SDS011;7770;52.158;5.372;2023-07-20T03:44:05;8.83;;;7.93;;
15340;SDS011;7770;52.158;5.372;2023-07-20T03:46:51;8.50;;;7.70;;
15340;SDS011;7770;52.158;5.372;2023-07-20T03:49:37;8.37;;;7.67;;
15340;SDS011;7770;52.158;5.372;2023-07-20T03:52:23;8.17;;;7.37;;
15340;SDS011;7770;52.158;5.372;2023-07-20T03:55:09;8.77;;;7.97;;
15340;SDS011;7770;52.158;5.372;2023-07-20T03:57:55;8.50;;;7.80;;
15340;SDS011;7770;52.158;5.372;2023-07-20T04:00:48;8.20;;;7.40;;
15340;SDS011;7770;52.158;5.372;2023-07-20T04:03:36;8.63;;;7.80;;
15340;SDS011;7770;52.158;5.372;2023-07-20T04:06:22;8.40;;;7.70;;
15340;SDS011;7770;52.158;5.372;2023-07-20T04:09:08;8.93;;;8.10;;
15340;SDS011;7770;52.158;5.372;2023-07-20T04:11:55;9.33;;;8.43;;
15340;SDS011;7770;52.158;5.372;2023-07-20T04:14:41;8.73;;;7.93;;
15340;SDS011;7770;52.158;5.372;2023-07-20T04:17:27;8.63;;;7.73;;
15340;SDS011;7770;52.158;5.372;2023-07-20T04:20:13;8.87;;;8.07;;
15340;SDS011;7770;52.158;5.372;2023-07-20T04:22:59;8.53;;;7.83;;
15340;SDS011;7770;52.158;5.372;2023-07-20T04:25:45;8.17;;;7.50;;
15340;SDS011;7770;52.158;5.372;2023-07-20T04:28:32;9.00;;;8.20;;
15340;SDS011;7770;52.158;5.372;2023-07-20T04:31:19;9.13;;;8.23;;
15340;SDS011;7770;52.158;5.372;2023-07-20T04:34:05;9.57;;;8.63;;
15340;SDS011;7770;52.158;5.372;2023-07-20T04:36:51;9.17;;;8.27;;
15340;SDS011;7770;52.158;5.372;2023-07-20T04:39:37;9.00;;;8.20;;
15340;SDS011;7770;52.158;5.372;2023-07-20T04:42:23;8.23;;;7.60;;
15340;SDS011;7770;52.158;5.372;2023-07-20T04:45:09;9.23;;;8.27;;
15340;SDS011;7770;52.158;5.372;2023-07-20T04:47:55;8.83;;;8.13;;
15340;SDS011;7770;52.158;5.372;2023-07-20T04:50:41;8.97;;;8.17;;
15340;SDS011;7770;52.158;5.372;2023-07-20T04:53:30;9.40;;;8.47;;
15340;SDS011;7770;52.158;5.372;2023-07-20T04:56:16;9.80;;;8.90;;
15340;SDS011;7770;52.158;5.372;2023-07-20T04:59:02;9.67;;;8.70;;
15340;SDS011;7770;52.158;5.372;2023-07-20T05:01:48;9.20;;;8.40;;
15340;SDS011;7770;52.158;5.372;2023-07-20T05:04:34;8.93;;;8.13;;
15340;SDS011;7770;52.158;5.372;2023-07-20T05:07:20;8.87;;;8.07;;
15340;SDS011;7770;52.158;5.372;2023-07-20T05:10:06;8.47;;;7.77;;
15340;SDS011;7770;52.158;5.372;2023-07-20T05:12:53;8.00;;;7.30;;
15340;SDS011;7770;52.158;5.372;2023-07-20T05:15:39;8.00;;;7.20;;
15340;SDS011;7770;52.158;5.372;2023-07-20T05:18:25;8.50;;;7.43;;
15340;SDS011;7770;52.158;5.372;2023-07-20T05:21:11;7.63;;;6.93;;
15340;SDS011;7770;52.158;5.372;2023-07-20T05:23:57;8.27;;;7.57;;
15340;SDS011;7770;52.158;5.372;2023-07-20T05:26:43;8.20;;;7.40;;
15340;SDS011;7770;52.158;5.372;2023-07-20T05:29:29;7.17;;;6.40;;
15340;SDS011;7770;52.158;5.372;2023-07-20T05:32:15;5.70;;;5.30;;
15340;SDS011;7770;52.158;5.372;2023-07-20T05:35:01;4.90;;;4.50;;
15340;SDS011;7770;52.158;5.372;2023-07-20T05:37:47;4.47;;;4.07;;
15340;SDS011;7770;52.158;5.372;2023-07-20T05:40:35;3.83;;;3.53;;
15340;SDS011;7770;52.158;5.372;2023-07-20T05:43:30;4.10;;;3.50;;
15340;SDS011;7770;52.158;5.372;2023-07-20T05:46:16;3.75;;;3.45;;
15340;SDS011;7770;52.158;5.372;2023-07-20T05:49:02;4.38;;;3.22;;
15340;SDS011;7770;52.158;5.372;2023-07-20T05:51:48;3.42;;;3.13;;
15340;SDS011;7770;52.158;5.372;2023-07-20T05:54:34;3.30;;;3.00;;
15340;SDS011;7770;52.158;5.372;2023-07-20T05:57:20;2.90;;;2.70;;
15340;SDS011;7770;52.158;5.372;2023-07-20T06:00:06;3.03;;;2.83;;
15340;SDS011;7770;52.158;5.372;2023-07-20T06:02:53;3.40;;;3.10;;
15340;SDS011;7770;52.158;5.372;2023-07-20T06:05:40;5.95;;;2.78;;
15340;SDS011;7770;52.158;5.372;2023-07-20T06:08:26;3.20;;;2.90;;
15340;SDS011;7770;52.158;5.372;2023-07-20T06:11:13;3.33;;;3.08;;
15340;SDS011;7770;52.158;5.372;2023-07-20T06:14:00;3.50;;;3.20;;
15340;SDS011;7770;52.158;5.372;2023-07-20T06:16:46;3.45;;;3.10;;
15340;SDS011;7770;52.158;5.372;2023-07-20T06:19:32;4.40;;;3.10;;
15340;SDS011;7770;52.158;5.372;2023-07-20T06:22:18;3.45;;;3.00;;
15340;SDS011;7770;52.158;5.372;2023-07-20T06:25:04;3.35;;;3.05;;
15340;SDS011;7770;52.158;5.372;2023-07-20T06:27:50;4.18;;;3.15;;
15340;SDS011;7770;52.158;5.372;2023-07-20T06:30:37;5.03;;;2.70;;
15340;SDS011;7770;52.158;5.372;2023-07-20T06:33:23;3.33;;;2.60;;
15340;SDS011;7770;52.158;5.372;2023-07-20T06:36:09;3.30;;;2.50;;
15340;SDS011;7770;52.158;5.372;2023-07-20T06:38:56;2.47;;;2.10;;
15340;SDS011;7770;52.158;5.372;2023-07-20T06:41:42;3.17;;;2.10;;
15340;SDS011;7770;52.158;5.372;2023-07-20T06:44:28;2.73;;;2.00;;
15340;SDS011;7770;52.158;5.372;2023-07-20T06:47:14;3.17;;;1.93;;
15340;SDS011;7770;52.158;5.372;2023-07-20T06:50:00;2.83;;;2.10;;
15340;SDS011;7770;52.158;5.372;2023-07-20T06:52:46;2.40;;;2.20;;
15340;SDS011;7770;52.158;5.372;2023-07-20T06:55:33;3.30;;;2.50;;
15340;SDS011;7770;52.158;5.372;2023-07-20T06:58:19;3.10;;;2.20;;
15340;SDS011;7770;52.158;5.372;2023-07-20T07:01:07;2.73;;;2.30;;
15340;SDS011;7770;52.158;5.372;2023-07-20T07:03:53;2.20;;;2.00;;
15340;SDS011;7770;52.158;5.372;2023-07-20T07:06:39;3.10;;;2.00;;
15340;SDS011;7770;52.158;5.372;2023-07-20T07:09:26;2.30;;;2.10;;
15340;SDS011;7770;52.158;5.372;2023-07-20T07:12:12;2.40;;;2.07;;
15340;SDS011;7770;52.158;5.372;2023-07-20T07:14:58;2.47;;;2.27;;
15340;SDS011;7770;52.158;5.372;2023-07-20T07:17:45;3.40;;;2.20;;
15340;SDS011;7770;52.158;5.372;2023-07-20T07:20:31;2.77;;;2.20;;
15340;SDS011;7770;52.158;5.372;2023-07-20T07:23:17;3.23;;;2.30;;
15340;SDS011;7770;52.158;5.372;2023-07-20T07:26:03;2.20;;;2.00;;
15340;SDS011;7770;52.158;5.372;2023-07-20T07:28:49;2.33;;;2.10;;
15340;SDS011;7770;52.158;5.372;2023-07-20T07:31:35;2.30;;;2.10;;
15340;SDS011;7770;52.158;5.372;2023-07-20T07:34:21;2.30;;;1.93;;
15340;SDS011;7770;52.158;5.372;2023-07-20T07:37:07;1.63;;;1.52;;
15340;SDS011;7770;52.158;5.372;2023-07-20T07:39:53;2.53;;;1.60;;
15340;SDS011;7770;52.158;5.372;2023-07-20T07:42:39;2.78;;;1.50;;
15340;SDS011;7770;52.158;5.372;2023-07-20T07:45:25;2.58;;;1.42;;
15340;SDS011;7770;52.158;5.372;2023-07-20T07:48:11;2.95;;;1.40;;
15340;SDS011;7770;52.158;5.372;2023-07-20T07:50:59;2.70;;;1.50;;
15340;SDS011;7770;52.158;5.372;2023-07-20T07:53:45;1.95;;;1.60;;
15340;SDS011;7770;52.158;5.372;2023-07-20T07:56:32;2.17;;;1.48;;
15340;SDS011;7770;52.158;5.372;2023-07-20T07:59:18;2.92;;;1.70;;
15340;SDS011;7770;52.158;5.372;2023-07-20T08:02:04;1.98;;;1.50;;
15340;SDS011;7770;52.158;5.372;2023-07-20T08:04:51;2.00;;;1.80;;
15340;SDS011;7770;52.158;5.372;2023-07-20T08:07:37;1.90;;;1.60;;
15340;SDS011;7770;52.158;5.372;2023-07-20T08:10:23;2.08;;;1.80;;
15340;SDS011;7770;52.158;5.372;2023-07-20T08:13:09;3.05;;;1.60;;
15340;SDS011;7770;52.158;5.372;2023-07-20T08:15:55;2.60;;;1.50;;
15340;SDS011;7770;52.158;5.372;2023-07-20T08:18:41;1.80;;;1.58;;
15340;SDS011;7770;52.158;5.372;2023-07-20T08:21:28;1.27;;;1.17;;
15340;SDS011;7770;52.158;5.372;2023-07-20T08:24:14;1.23;;;1.13;;
15340;SDS011;7770;52.158;5.372;2023-07-20T08:27:00;1.30;;;1.20;;
15340;SDS011;7770;52.158;5.372;2023-07-20T08:29:46;1.70;;;1.35;;
15340;SDS011;7770;52.158;5.372;2023-07-20T08:32:33;1.65;;;1.25;;
15340;SDS011;7770;52.158;5.372;2023-07-20T08:35:19;2.17;;;1.42;;
15340;SDS011;7770;52.158;5.372;2023-07-20T08:38:05;2.72;;;1.30;;
15340;SDS011;7770;52.158;5.372;2023-07-20T08:40:52;1.52;;;1.30;;
15340;SDS011;7770;52.158;5.372;2023-07-20T08:43:41;1.30;;;1.20;;
15340;SDS011;7770;52.158;5.372;2023-07-20T08:46:29;1.33;;;1.23;;
15340;SDS011;7770;52.158;5.372;2023-07-20T08:49:16;2.45;;;1.20;;
15340;SDS011;7770;52.158;5.372;2023-07-20T08:52:03;1.40;;;1.30;;
15340;SDS011;7770;52.158;5.372;2023-07-20T08:54:50;2.55;;;1.42;;
15340;SDS011;7770;52.158;5.372;2023-07-20T08:57:38;2.72;;;1.40;;
15340;SDS011;7770;52.158;5.372;2023-07-20T09:00:26;3.20;;;1.40;;
15340;SDS011;7770;52.158;5.372;2023-07-20T09:03:14;1.92;;;1.25;;
15340;SDS011;7770;52.158;5.372;2023-07-20T09:06:01;1.40;;;1.30;;
15340;SDS011;7770;52.158;5.372;2023-07-20T09:08:47;3.42;;;1.38;;
15340;SDS011;7770;52.158;5.372;2023-07-20T09:11:32;1.50;;;1.40;;
15340;SDS011;7770;52.158;5.372;2023-07-20T09:14:18;2.38;;;1.50;;
15340;SDS011;7770;52.158;5.372;2023-07-20T09:17:04;2.08;;;1.50;;
15340;SDS011;7770;52.158;5.372;2023-07-20T09:19:50;1.92;;;1.30;;
15340;SDS011;7770;52.158;5.372;2023-07-20T09:22:37;3.03;;;1.23;;
15340;SDS011;7770;52.158;5.372;2023-07-20T09:25:26;2.63;;;1.50;;
15340;SDS011;7770;52.158;5.372;2023-07-20T09:28:13;1.98;;;1.40;;
15340;SDS011;7770;52.158;5.372;2023-07-20T09:31:00;2.35;;;1.42;;
15340;SDS011;7770;52.158;5.372;2023-07-20T09:34:03;1.88;;;1.42;;
15340;SDS011;7770;52.158;5.372;2023-07-20T09:36:50;1.73;;;1.30;;
15340;SDS011;7770;52.158;5.372;2023-07-20T09:39:44;1.92;;;1.10;;
15340;SDS011;7770;52.158;5.372;2023-07-20T09:42:31;1.17;;;1.10;;
15340;SDS011;7770;52.158;5.372;2023-07-20T09:45:17;3.20;;;1.45;;
15340;SDS011;7770;52.158;5.372;2023-07-20T09:48:04;2.25;;;1.20;;
15340;SDS011;7770;52.158;5.372;2023-07-20T09:50:56;1.02;;;1.02;;
15340;SDS011;7770;52.158;5.372;2023-07-20T09:53:42;1.20;;;1.10;;
15340;SDS011;7770;52.158;5.372;2023-07-20T09:56:29;1.20;;;1.10;;
15340;SDS011;7770;52.158;5.372;2023-07-20T09:59:16;1.38;;;1.27;;
15340;SDS011;7770;52.158;5.372;2023-07-20T10:02:03;1.33;;;1.20;;
15340;SDS011;7770;52.158;5.372;2023-07-20T10:05:02;1.73;;;1.30;;
15340;SDS011;7770;52.158;5.372;2023-07-20T10:07:50;1.17;;;1.08;;
15340;SDS011;7770;52.158;5.372;2023-07-20T10:10:37;1.35;;;1.25;;
15340;SDS011;7770;52.158;5.372;2023-07-20T10:13:29;1.23;;;1.13;;
15340;SDS011;7770;52.158;5.372;2023-07-20T10:16:26;1.40;;;1.30;;
15340;SDS011;7770;52.158;5.372;2023-07-20T10:19:20;1.30;;;1.20;;
15340;SDS011;7770;52.158;5.372;2023-07-20T10:22:16;1.30;;;1.20;;
15340;SDS011;7770;52.158;5.372;2023-07-20T10:25:11;1.63;;;1.20;;
15340;SDS011;7770;52.158;5.372;2023-07-20T10:27:58;1.20;;;1.10;;
15340;SDS011;7770;52.158;5.372;2023-07-20T10:30:44;1.17;;;1.13;;
15340;SDS011;7770;52.158;5.372;2023-07-20T10:33:31;2.35;;;1.10;;
15340;SDS011;7770;52.158;5.372;2023-07-20T10:36:21;1.20;;;1.10;;
15340;SDS011;7770;52.158;5.372;2023-07-20T10:39:24;1.20;;;1.10;;
15340;SDS011;7770;52.158;5.372;2023-07-20T10:42:13;1.30;;;1.20;;
15340;SDS011;7770;52.158;5.372;2023-07-20T10:45:00;3.58;;;1.35;;
15340;SDS011;7770;52.158;5.372;2023-07-20T10:47:46;1.42;;;1.20;;
15340;SDS011;7770;52.158;5.372;2023-07-20T10:50:33;1.40;;;1.30;;
15340;SDS011;7770;52.158;5.372;2023-07-20T10:53:19;2.50;;;1.23;;
15340;SDS011;7770;52.158;5.372;2023-07-20T10:56:06;1.30;;;1.10;;
15340;SDS011;7770;52.158;5.372;2023-07-20T10:59:00;1.40;;;1.13;;
15340;SDS011;7770;52.158;5.372;2023-07-20T11:02:07;2.17;;;1.20;;
15340;SDS011;7770;52.158;5.372;2023-07-20T11:04:54;3.97;;;1.35;;
15340;SDS011;7770;52.158;5.372;2023-07-20T11:07:40;1.15;;;1.05;;
15340;SDS011;7770;52.158;5.372;2023-07-20T11:10:26;1.10;;;0.98;;
15340;SDS011;7770;52.158;5.372;2023-07-20T11:13:19;1.30;;;1.20;;
15340;SDS011;7770;52.158;5.372;2023-07-20T11:16:08;1.00;;;0.98;;
15340;SDS011;7770;52.158;5.372;2023-07-20T11:18:54;1.20;;;1.10;;
15340;SDS011;7770;52.158;5.372;2023-07-20T11:21:41;1.17;;;1.08;;
15340;SDS011;7770;52.158;5.372;2023-07-20T11:24:29;1.35;;;1.25;;
15340;SDS011;7770;52.158;5.372;2023-07-20T11:27:16;1.42;;;1.25;;
15340;SDS011;7770;52.158;5.372;2023-07-20T11:30:15;1.30;;;1.10;;
15340;SDS011;7770;52.158;5.372;2023-07-20T11:33:01;3.33;;;1.10;;
15340;SDS011;7770;52.158;5.372;2023-07-20T11:35:48;2.00;;;1.00;;
15340;SDS011;7770;52.158;5.372;2023-07-20T11:38:36;1.50;;;1.30;;
15340;SDS011;7770;52.158;5.372;2023-07-20T11:41:22;1.20;;;1.10;;
15340;SDS011;7770;52.158;5.372;2023-07-20T11:44:08;2.30;;;1.13;;
15340;SDS011;7770;52.158;5.372;2023-07-20T11:47:02;1.30;;;1.20;;
15340;SDS011;7770;52.158;5.372;2023-07-20T11:49:57;1.92;;;1.10;;
15340;SDS011;7770;52.158;5.372;2023-07-20T11:52:49;1.38;;;1.27;;
15340;SDS011;7770;52.158;5.372;2023-07-20T11:55:35;1.60;;;1.40;;
15340;SDS011;7770;52.158;5.372;2023-07-20T11:58:21;1.30;;;1.20;;
15340;SDS011;7770;52.158;5.372;2023-07-20T12:01:08;2.30;;;1.58;;
15340;SDS011;7770;52.158;5.372;2023-07-20T12:03:55;1.30;;;1.20;;
15340;SDS011;7770;52.158;5.372;2023-07-20T12:06:42;1.40;;;1.30;;
15340;SDS011;7770;52.158;5.372;2023-07-20T12:09:28;1.20;;;1.10;;
15340;SDS011;7770;52.158;5.372;2023-07-20T12:12:14;1.48;;;1.23;;
15340;SDS011;7770;52.158;5.372;2023-07-20T12:18:19;1.80;;;1.45;;
15340;SDS011;7770;52.158;5.372;2023-07-20T12:21:08;1.73;;;1.50;;
15340;SDS011;7770;52.158;5.372;2023-07-20T12:23:56;1.50;;;1.40;;
15340;SDS011;7770;52.158;5.372;2023-07-20T12:26:43;1.45;;;1.35;;
15340;SDS011;7770;52.158;5.372;2023-07-20T12:29:29;1.40;;;1.30;;
15340;SDS011;7770;52.158;5.372;2023-07-20T12:32:17;2.35;;;1.65;;
15340;SDS011;7770;52.158;5.372;2023-07-20T12:35:03;3.10;;;1.50;;
15340;SDS011;7770;52.158;5.372;2023-07-20T12:37:50;1.90;;;1.40;;
15340;SDS011;7770;52.158;5.372;2023-07-20T12:40:36;1.60;;;1.50;;
15340;SDS011;7770;52.158;5.372;2023-07-20T12:43:22;2.85;;;1.50;;
15340;SDS011;7770;52.158;5.372;2023-07-20T12:46:09;2.25;;;1.50;;
15340;SDS011;7770;52.158;5.372;2023-07-20T12:48:57;2.42;;;1.48;;
15340;SDS011;7770;52.158;5.372;2023-07-20T12:51:43;1.50;;;1.40;;
15340;SDS011;7770;52.158;5.372;2023-07-20T12:54:29;1.60;;;1.50;;
15340;SDS011;7770;52.158;5.372;2023-07-20T12:57:15;1.55;;;1.45;;
15340;SDS011;7770;52.158;5.372;2023-07-20T13:00:02;15.90;;;1.63;;
15340;SDS011;7770;52.158;5.372;2023-07-20T13:02:50;1.60;;;1.50;;
15340;SDS011;7770;52.158;5.372;2023-07-20T13:05:36;2.53;;;1.63;;
15340;SDS011;7770;52.158;5.372;2023-07-20T13:08:22;1.63;;;1.50;;
15340;SDS011;7770;52.158;5.372;2023-07-20T13:11:10;1.60;;;1.50;;
15340;SDS011;7770;52.158;5.372;2023-07-20T13:13:56;1.70;;;1.60;;
15340;SDS011;7770;52.158;5.372;2023-07-20T13:16:42;1.70;;;1.60;;
15340;SDS011;7770;52.158;5.372;2023-07-20T13:19:28;3.47;;;1.90;;
15340;SDS011;7770;52.158;5.372;2023-07-20T13:22:14;1.70;;;1.60;;
15340;SDS011;7770;52.158;5.372;2023-07-20T13:25:00;2.00;;;1.70;;
15340;SDS011;7770;52.158;5.372;2023-07-20T13:27:47;1.70;;;1.60;;
15340;SDS011;7770;52.158;5.372;2023-07-20T13:30:33;3.67;;;1.70;;
15340;SDS011;7770;52.158;5.372;2023-07-20T13:33:19;1.70;;;1.60;;
15340;SDS011;7770;52.158;5.372;2023-07-20T13:36:05;3.85;;;1.80;;
15340;SDS011;7770;52.158;5.372;2023-07-20T13:38:51;1.83;;;1.73;;
15340;SDS011;7770;52.158;5.372;2023-07-20T13:41:37;1.90;;;1.73;;
15340;SDS011;7770;52.158;5.372;2023-07-20T13:44:23;1.80;;;1.70;;
15340;SDS011;7770;52.158;5.372;2023-07-20T13:47:09;2.60;;;1.60;;
15340;SDS011;7770;52.158;5.372;2023-07-20T13:49:55;1.80;;;1.70;;
15340;SDS011;7770;52.158;5.372;2023-07-20T13:52:41;1.73;;;1.63;;
15340;SDS011;7770;52.158;5.372;2023-07-20T13:55:27;2.75;;;1.83;;
15340;SDS011;7770;52.158;5.372;2023-07-20T13:58:13;2.13;;;1.70;;
15340;SDS011;7770;52.158;5.372;2023-07-20T14:00:59;3.42;;;1.80;;
15340;SDS011;7770;52.158;5.372;2023-07-20T14:03:45;3.60;;;1.80;;
15340;SDS011;7770;52.158;5.372;2023-07-20T14:06:32;2.40;;;1.90;;
15340;SDS011;7770;52.158;5.372;2023-07-20T14:09:18;1.77;;;1.60;;
15340;SDS011;7770;52.158;5.372;2023-07-20T14:12:05;1.88;;;1.67;;
15340;SDS011;7770;52.158;5.372;2023-07-20T14:14:51;1.83;;;1.70;;
15340;SDS011;7770;52.158;5.372;2023-07-20T14:17:39;3.85;;;1.80;;
15340;SDS011;7770;52.158;5.372;2023-07-20T14:20:25;1.90;;;1.70;;
15340;SDS011;7770;52.158;5.372;2023-07-20T14:23:11;2.50;;;1.80;;
15340;SDS011;7770;52.158;5.372;2023-07-20T14:25:57;2.55;;;1.80;;
15340;SDS011;7770;52.158;5.372;2023-07-20T14:28:43;1.80;;;1.70;;
15340;SDS011;7770;52.158;5.372;2023-07-20T14:31:30;2.10;;;1.90;;
15340;SDS011;7770;52.158;5.372;2023-07-20T14:34:16;2.70;;;1.92;;
15340;SDS011;7770;52.158;5.372;2023-07-20T14:37:04;2.60;;;1.80;;
15340;SDS011;7770;52.158;5.372;2023-07-20T14:39:50;3.05;;;1.80;;
15340;SDS011;7770;52.158;5.372;2023-07-20T14:42:36;2.65;;;1.67;;
15340;SDS011;7770;52.158;5.372;2023-07-20T14:45:22;1.73;;;1.58;;
15340;SDS011;7770;52.158;5.372;2023-07-20T14:48:08;1.85;;;1.60;;
15340;SDS011;7770;52.158;5.372;2023-07-20T14:50:54;1.70;;;1.60;;
15340;SDS011;7770;52.158;5.372;2023-07-20T14:53:40;3.50;;;1.80;;
15340;SDS011;7770;52.158;5.372;2023-07-20T14:56:26;3.88;;;1.70;;
15340;SDS011;7770;52.158;5.372;2023-07-20T14:59:12;1.90;;;1.70;;
15340;SDS011;7770;52.158;5.372;2023-07-20T15:01:58;2.22;;;2.03;;
15340;SDS011;7770;52.158;5.372;2023-07-20T15:04:48;3.22;;;2.30;;
15340;SDS011;7770;52.158;5.372;2023-07-20T15:07:35;2.47;;;2.20;;
15340;SDS011;7770;52.158;5.372;2023-07-20T15:10:22;2.30;;;2.10;;
15340;SDS011;7770;52.158;5.372;2023-07-20T15:13:08;2.10;;;1.90;;
15340;SDS011;7770;52.158;5.372;2023-07-20T15:15:54;3.80;;;2.10;;
15340;SDS011;7770;52.158;5.372;2023-07-20T15:18:40;2.50;;;1.77;;
15340;SDS011;7770;52.158;5.372;2023-07-20T15:21:26;2.15;;;1.95;;
15340;SDS011;7770;52.158;5.372;2023-07-20T15:24:15;3.95;;;2.17;;
15340;SDS011;7770;52.158;5.372;2023-07-20T15:27:01;2.03;;;1.83;;
15340;SDS011;7770;52.158;5.372;2023-07-20T15:29:48;3.90;;;2.10;;
15340;SDS011;7770;52.158;5.372;2023-07-20T15:32:35;2.57;;;2.00;;
15340;SDS011;7770;52.158;5.372;2023-07-20T15:35:21;4.47;;;2.63;;
15340;SDS011;7770;52.158;5.372;2023-07-20T15:38:07;3.07;;;2.73;;
15340;SDS011;7770;52.158;5.372;2023-07-20T15:40:53;3.50;;;2.23;;
15340;SDS011;7770;52.158;5.372;2023-07-20T15:43:41;2.20;;;2.00;;
15340;SDS011;7770;52.158;5.372;2023-07-20T15:49:26;4.70;;;2.17;;
15340;SDS011;7770;52.158;5.372;2023-07-20T15:52:13;2.60;;;2.10;;
15340;SDS011;7770;52.158;5.372;2023-07-20T15:54:59;3.40;;;2.10;;
15340;SDS011;7770;52.158;5.372;2023-07-20T15:57:45;2.10;;;1.90;;
15340;SDS011;7770;52.158;5.372;2023-07-20T16:00:31;5.27;;;1.90;;
15340;SDS011;7770;52.158;5.372;2023-07-20T16:03:17;2.73;;;1.93;;
15340;SDS011;7770;52.158;5.372;2023-07-20T16:06:03;3.03;;;2.30;;
15340;SDS011;7770;52.158;5.372;2023-07-20T16:08:49;4.03;;;2.23;;
15340;SDS011;7770;52.158;5.372;2023-07-20T16:11:36;6.00;;;4.57;;
15340;SDS011;7770;52.158;5.372;2023-07-20T16:14:22;3.73;;;3.30;;
15340;SDS011;7770;52.158;5.372;2023-07-20T16:17:08;3.40;;;3.10;;
15340;SDS011;7770;52.158;5.372;2023-07-20T16:19:55;2.63;;;2.43;;
15340;SDS011;7770;52.158;5.372;2023-07-20T16:22:42;4.40;;;2.50;;
15340;SDS011;7770;52.158;5.372;2023-07-20T16:25:28;2.10;;;1.90;;
15340;SDS011;7770;52.158;5.372;2023-07-20T16:28:14;3.67;;;3.23;;
15340;SDS011;7770;52.158;5.372;2023-07-20T16:31:06;8.50;;;7.80;;
15340;SDS011;7770;52.158;5.372;2023-07-20T16:33:58;4.43;;;2.83;;
15340;SDS011;7770;52.158;5.372;2023-07-20T16:36:44;3.33;;;2.40;;
15340;SDS011;7770;52.158;5.372;2023-07-20T16:39:30;2.53;;;2.27;;
15340;SDS011;7770;52.158;5.372;2023-07-20T16:42:16;4.37;;;2.43;;
15340;SDS011;7770;52.158;5.372;2023-07-20T16:45:04;3.67;;;2.60;;
15340;SDS011;7770;52.158;5.372;2023-07-20T16:47:51;10.00;;;3.90;;
15340;SDS011;7770;52.158;5.372;2023-07-20T16:50:37;2.90;;;2.30;;
15340;SDS011;7770;52.158;5.372;2023-07-20T16:53:23;2.33;;;2.13;;
15340;SDS011;7770;52.158;5.372;2023-07-20T16:56:10;2.80;;;2.50;;
15340;SDS011;7770;52.158;5.372;2023-07-20T16:58:57;4.10;;;3.80;;
15340;SDS011;7770;52.158;5.372;2023-07-20T17:01:43;3.30;;;3.00;;
15340;SDS011;7770;52.158;5.372;2023-07-20T17:04:30;3.53;;;2.80;;
15340;SDS011;7770;52.158;5.372;2023-07-20T17:07:16;2.97;;;2.50;;
15340;SDS011;7770;52.158;5.372;2023-07-20T17:10:03;2.47;;;2.17;;
15340;SDS011;7770;52.158;5.372;2023-07-20T17:12:52;4.23;;;2.80;;
15340;SDS011;7770;52.158;5.372;2023-07-20T17:15:38;4.10;;;3.30;;
15340;SDS011;7770;52.158;5.372;2023-07-20T17:18:24;5.00;;;3.40;;